sensor_id;sensor_type;location;lat;lon;timestamp;temperature;humidity
15235;DHT22;7720;51.926;4.488;2023-07-28T00:02:25;19.10;99.90
15235;DHT22;7720;51.926;4.488;2023-07-28T00:07:28;19.20;99.90
15235;DHT22;7720;51.926;4.488;2023-07-28T00:12:34;19.20;99.90
15235;DHT22;7720;51.926;4.488;2023-07-28T00:17:37;19.20;99.90
15235;DHT22;7720;51.926;4.488;2023-07-28T00:22:41;19.30;99.90
15235;DHT22;7720;51.926;4.488;2023-07-28T00:27:46;19.30;99.90
15235;DHT22;7720;51.926;4.488;2023-07-28T00:32:49;19.30;99.90
15235;DHT22;7720;51.926;4.488;2023-07-28T00:37:53;19.30;99.90
15235;DHT22;7720;51.926;4.488;2023-07-28T00:42:58;19.20;99.90
15235;DHT22;7720;51.926;4.488;2023-07-28T00:48:02;19.30;99.90
15235;DHT22;7720;51.926;4.488;2023-07-28T00:53:05;19.30;99.90
15235;DHT22;7720;51.926;4.488;2023-07-28T00:58:11;19.30;99.90
15235;DHT22;7720;51.926;4.488;2023-07-28T01:03:14;19.40;99.90
15235;DHT22;7720;51.926;4.488;2023-07-28T01:08:26;19.20;99.90
15235;DHT22;7720;51.926;4.488;2023-07-28T01:13:31;19.20;99.90
15235;DHT22;7720;51.926;4.488;2023-07-28T01:18:36;19.20;99.90
15235;DHT22;7720;51.926;4.488;2023-07-28T12:02:07;22.90;99.90
15235;DHT22;7720;51.926;4.488;2023-07-28T12:07:15;23.00;99.90
15235;DHT22;7720;51.926;4.488;2023-07-28T12:12:21;23.30;99.90
15235;DHT22;7720;51.926;4.488;2023-07-28T12:17:28;23.50;99.90
15235;DHT22;7720;51.926;4.488;2023-07-28T12:22:34;23.70;99.90
15235;DHT22;7720;51.926;4.488;2023-07-28T12:32:43;24.10;99.90
15235;DHT22;7720;51.926;4.488;2023-07-28T12:42:57;23.80;99.90
15235;DHT22;7720;51.926;4.488;2023-07-28T12:48:08;23.70;99.90
15235;DHT22;7720;51.926;4.488;2023-07-28T12:53:22;23.70;99.90
15235;DHT22;7720;51.926;4.488;2023-07-28T12:58:25;23.70;99.90
15235;DHT22;7720;51.926;4.488;2023-07-28T13:03:33;23.60;99.90
15235;DHT22;7720;51.926;4.488;2023-07-28T13:08:36;23.60;99.90
15235;DHT22;7720;51.926;4.488;2023-07-28T13:13:43;23.50;99.90
15235;DHT22;7720;51.926;4.488;2023-07-28T13:23:51;23.70;99.90
15235;DHT22;7720;51.926;4.488;2023-07-28T13:28:54;23.50;99.90
15235;DHT22;7720;51.926;4.488;2023-07-28T13:34:01;23.60;99.90
15235;DHT22;7720;51.926;4.488;2023-07-28T13:39:05;23.40;99.90
15235;DHT22;7720;51.926;4.488;2023-07-28T13:44:08;22.70;99.90
15235;DHT22;7720;51.926;4.488;2023-07-28T13:49:17;23.10;99.90
15235;DHT22;7720;51.926;4.488;2023-07-28T13:54:22;23.10;99.90
15235;DHT22;7720;51.926;4.488;2023-07-28T13:59:26;23.20;99.90
15235;DHT22;7720;51.926;4.488;2023-07-28T14:04:30;22.90;99.90
15235;DHT22;7720;51.926;4.488;2023-07-28T14:09:34;22.70;99.90
15235;DHT22;7720;51.926;4.488;2023-07-28T14:14:38;22.70;99.90
15235;DHT22;7720;51.926;4.488;2023-07-28T14:19:43;22.90;99.90
15235;DHT22;7720;51.926;4.488;2023-07-28T14:24:46;22.60;99.90
15235;DHT22;7720;51.926;4.488;2023-07-28T14:34:55;22.30;99.90
15235;DHT22;7720;51.926;4.488;2023-07-28T14:50:08;21.80;99.90
15235;DHT22;7720;51.926;4.488;2023-07-28T14:55:11;21.70;99.90
15235;DHT22;7720;51.926;4.488;2023-07-28T15:00:17;22.00;99.90
15235;DHT22;7720;51.926;4.488;2023-07-28T15:05:22;22.40;99.90
15235;DHT22;7720;51.926;4.488;2023-07-28T15:10:25;22.40;99.90
15235;DHT22;7720;51.926;4.488;2023-07-28T15:15:29;22.40;99.90
15235;DHT22;7720;51.926;4.488;2023-07-28T15:20:35;22.30;99.90
15235;DHT22;7720;51.926;4.488;2023-07-28T15:25:38;22.20;99.90
15235;DHT22;7720;51.926;4.488;2023-07-28T15:30:44;22.30;99.90
15235;DHT22;7720;51.926;4.488;2023-07-28T15:35:52;22.20;99.90
15235;DHT22;7720;51.926;4.488;2023-07-28T15:40:56;22.20;99.90
15235;DHT22;7720;51.926;4.488;2023-07-28T15:46:00;22.30;99.90
15235;DHT22;7720;51.926;4.488;2023-07-28T15:51:08;22.20;99.90
15235;DHT22;7720;51.926;4.488;2023-07-28T15:56:12;22.20;99.90
15235;DHT22;7720;51.926;4.488;2023-07-28T16:01:15;22.40;99.90
15235;DHT22;7720;51.926;4.488;2023-07-28T16:06:20;22.60;99.90
15235;DHT22;7720;51.926;4.488;2023-07-28T16:11:23;22.50;99.90
15235;DHT22;7720;51.926;4.488;2023-07-28T16:16:27;22.60;99.90
15235;DHT22;7720;51.926;4.488;2023-07-28T16:21:32;22.70;99.90
15235;DHT22;7720;51.926;4.488;2023-07-28T16:26:36;22.70;99.90
15235;DHT22;7720;51.926;4.488;2023-07-28T16:31:39;22.50;99.90
15235;DHT22;7720;51.926;4.488;2023-07-28T16:41:48;22.60;99.90
15235;DHT22;7720;51.926;4.488;2023-07-28T16:46:52;22.50;99.90
15235;DHT22;7720;51.926;4.488;2023-07-28T16:51:57;22.40;99.90
15235;DHT22;7720;51.926;4.488;2023-07-28T16:57:00;22.60;99.90
15235;DHT22;7720;51.926;4.488;2023-07-28T17:02:05;22.50;99.90
15235;DHT22;7720;51.926;4.488;2023-07-28T17:07:09;22.50;99.90
15235;DHT22;7720;51.926;4.488;2023-07-28T17:12:13;22.50;99.90
15235;DHT22;7720;51.926;4.488;2023-07-28T17:17:16;22.50;99.90
15235;DHT22;7720;51.926;4.488;2023-07-28T17:22:21;22.40;99.90
15235;DHT22;7720;51.926;4.488;2023-07-28T17:27:24;22.50;99.90
15235;DHT22;7720;51.926;4.488;2023-07-28T17:32:28;22.50;99.90
15235;DHT22;7720;51.926;4.488;2023-07-28T17:37:32;22.50;99.90
15235;DHT22;7720;51.926;4.488;2023-07-28T17:42:36;22.50;99.90
15235;DHT22;7720;51.926;4.488;2023-07-28T17:47:39;22.40;99.90
15235;DHT22;7720;51.926;4.488;2023-07-28T17:52:44;22.40;99.90
15235;DHT22;7720;51.926;4.488;2023-07-28T17:57:48;22.50;99.90
15235;DHT22;7720;51.926;4.488;2023-07-28T18:02:51;22.50;99.90
15235;DHT22;7720;51.926;4.488;2023-07-28T18:07:56;22.50;99.90
15235;DHT22;7720;51.926;4.488;2023-07-28T18:13:00;22.50;99.90
15235;DHT22;7720;51.926;4.488;2023-07-28T18:18:03;22.40;99.90
15235;DHT22;7720;51.926;4.488;2023-07-28T18:23:10;22.30;99.90
15235;DHT22;7720;51.926;4.488;2023-07-28T18:28:13;22.20;99.90
15235;DHT22;7720;51.926;4.488;2023-07-28T18:33:17;22.10;99.90
15235;DHT22;7720;51.926;4.488;2023-07-28T18:38:22;22.00;99.90
15235;DHT22;7720;51.926;4.488;2023-07-28T18:43:26;21.90;99.90
15235;DHT22;7720;51.926;4.488;2023-07-28T18:48:30;21.80;99.90
15235;DHT22;7720;51.926;4.488;2023-07-28T18:53:35;21.90;99.90
15235;DHT22;7720;51.926;4.488;2023-07-28T18:58:39;21.90;99.90
15235;DHT22;7720;51.926;4.488;2023-07-28T19:03:44;21.80;99.90
15235;DHT22;7720;51.926;4.488;2023-07-28T19:08:49;21.70;99.90
15235;DHT22;7720;51.926;4.488;2023-07-28T19:13:55;21.60;99.90
15235;DHT22;7720;51.926;4.488;2023-07-28T19:18:58;21.50;99.90
15235;DHT22;7720;51.926;4.488;2023-07-28T19:24:03;21.30;99.90
15235;DHT22;7720;51.926;4.488;2023-07-28T19:29:07;21.50;99.90
15235;DHT22;7720;51.926;4.488;2023-07-28T19:34:10;21.60;99.90
15235;DHT22;7720;51.926;4.488;2023-07-28T19:39:15;21.50;99.90
15235;DHT22;7720;51.926;4.488;2023-07-28T19:44:19;21.50;99.90
15235;DHT22;7720;51.926;4.488;2023-07-28T19:49:41;21.50;99.90
15235;DHT22;7720;51.926;4.488;2023-07-28T19:54:49;21.40;99.90
15235;DHT22;7720;51.926;4.488;2023-07-28T19:59:52;21.50;99.90
15235;DHT22;7720;51.926;4.488;2023-07-28T20:04:56;21.30;99.90
15235;DHT22;7720;51.926;4.488;2023-07-28T20:10:01;21.10;99.90
15235;DHT22;7720;51.926;4.488;2023-07-28T20:15:06;21.20;99.90
15235;DHT22;7720;51.926;4.488;2023-07-28T20:20:10;21.20;99.90
15235;DHT22;7720;51.926;4.488;2023-07-28T20:25:15;21.20;99.90
15235;DHT22;7720;51.926;4.488;2023-07-28T20:30:19;21.10;99.90
15235;DHT22;7720;51.926;4.488;2023-07-28T20:35:22;20.80;99.90
15235;DHT22;7720;51.926;4.488;2023-07-28T20:40:27;18.60;99.90
15235;DHT22;7720;51.926;4.488;2023-07-28T20:45:30;20.50;99.90
15235;DHT22;7720;51.926;4.488;2023-07-28T21:11:23;20.20;99.90
15235;DHT22;7720;51.926;4.488;2023-07-28T21:42:09;20.10;99.90
15235;DHT22;7720;51.926;4.488;2023-07-28T22:40:04;19.90;99.90
15235;DHT22;7720;51.926;4.488;2023-07-28T22:50:21;19.90;99.90
15235;DHT22;7720;51.926;4.488;2023-07-28T23:26:17;19.90;99.90
